Time;durP1;ratioP1;P1;durP2;ratioP2;P2;SDS_P1;SDS_P2;PMS_P1;PMS_P2;Temp;Humidity;BMP_temperature;BMP_pressure;BME280_temperature;BME280_humidity;BME280_pressure;Samples;Min_cycle;Max_cycle;Signal;HPM_P1;HPM_P2
2022/05/16 00:02:09;;;;;;;2.30;1.55;;;23.70;48.10;;;;;;4936457;29;20111;-74
2022/05/16 00:04:37;;;;;;;3.65;1.40;;;23.60;48.10;;;;;;4951883;29;20039;-75
2022/05/16 00:07:03;;;;;;;4.00;1.83;;;23.60;48.10;;;;;;4936544;29;20432;-75
2022/05/16 00:09:28;;;;;;;4.50;1.80;;;23.60;48.20;;;;;;4919738;29;20027;-75
2022/05/16 00:11:54;;;;;;;3.53;1.77;;;23.50;48.20;;;;;;4935325;29;20035;-74
2022/05/16 00:14:20;;;;;;;3.65;1.83;;;23.50;48.20;;;;;;4920361;29;20038;-76
2022/05/16 00:16:46;;;;;;;2.40;1.60;;;23.50;48.30;;;;;;4935999;29;20040;-75
2022/05/16 00:19:12;;;;;;;2.97;1.70;;;23.50;48.30;;;;;;4935615;29;20034;-77
2022/05/16 00:21:38;;;;;;;2.00;1.30;;;23.40;48.30;;;;;;4935184;29;20035;-75
2022/05/16 00:24:04;;;;;;;3.10;1.55;;;23.40;48.30;;;;;;4935308;29;20028;-75
2022/05/16 00:26:30;;;;;;;3.25;1.63;;;23.40;48.40;;;;;;4935153;29;20465;-75
2022/05/16 00:28:56;;;;;;;3.75;1.80;;;23.30;48.30;;;;;;4936410;29;20067;-74
2022/05/16 00:31:21;;;;;;;2.47;1.52;;;23.30;48.40;;;;;;4935461;29;20044;-75
2022/05/16 00:33:47;;;;;;;3.13;1.50;;;23.30;48.40;;;;;;4919556;29;20038;-75
2022/05/16 00:36:13;;;;;;;3.33;1.60;;;23.30;48.50;;;;;;4936322;29;20032;-76
2022/05/16 00:38:39;;;;;;;3.65;1.85;;;23.20;48.50;;;;;;4919095;29;20035;-74
2022/05/16 00:41:06;;;;;;;2.75;1.75;;;23.20;48.50;;;;;;4935971;29;20578;-75
2022/05/16 00:43:43;;;;;;;2.72;1.60;;;23.20;48.60;;;;;;4936126;29;20039;-76
2022/05/16 00:46:09;;;;;;;3.05;1.80;;;23.10;48.60;;;;;;4936417;29;20039;-76
2022/05/16 00:48:34;;;;;;;2.85;1.42;;;23.10;48.60;;;;;;4935601;29;20032;-74
2022/05/16 00:51:02;;;;;;;3.45;1.85;;;23.00;48.60;;;;;;4935257;29;20055;-75
2022/05/16 00:53:29;;;;;;;3.13;1.65;;;23.00;48.70;;;;;;4936674;29;20073;-75
2022/05/16 00:55:55;;;;;;;5.22;1.90;;;23.00;48.60;;;;;;4935285;29;20035;-75
2022/05/16 00:58:21;;;;;;;3.30;1.58;;;23.00;48.60;;;;;;4919057;29;20118;-74
2022/05/16 01:00:48;;;;;;;3.22;1.77;;;22.90;48.70;;;;;;4935545;29;20413;-74
2022/05/16 01:06:02;;;;;;;3.53;1.77;;;22.90;48.70;;;;;;4934730;29;20062;-76
2022/05/16 01:08:31;;;;;;;3.08;1.70;;;22.90;48.80;;;;;;4919311;29;20365;-75
2022/05/16 01:11:01;;;;;;;2.20;1.60;;;22.80;48.80;;;;;;4950636;29;20484;-75
2022/05/16 01:13:29;;;;;;;2.65;1.30;;;22.70;48.80;;;;;;4950766;29;20425;-74
2022/05/16 01:15:56;;;;;;;3.88;1.63;;;22.70;48.80;;;;;;4936267;29;20034;-74
2022/05/16 01:18:26;;;;;;;3.05;1.67;;;22.70;48.90;;;;;;4919463;29;20032;-75
2022/05/16 01:21:10;;;;;;;3.28;1.80;;;22.60;48.90;;;;;;4935062;29;20063;-74
2022/05/16 01:23:49;;;;;;;2.85;1.42;;;22.60;48.90;;;;;;4935457;29;20126;-76
2022/05/16 01:26:26;;;;;;;3.00;1.45;;;22.60;49.00;;;;;;4951644;29;20032;-75
2022/05/16 01:28:53;;;;;;;3.05;1.77;;;22.60;49.00;;;;;;4934564;29;20066;-75
2022/05/16 01:31:19;;;;;;;2.92;1.60;;;22.60;49.10;;;;;;4950535;29;20369;-75
2022/05/16 01:33:44;;;;;;;2.72;1.58;;;22.50;49.00;;;;;;4936022;29;20062;-75
2022/05/16 01:36:11;;;;;;;2.13;1.63;;;22.50;49.10;;;;;;4918955;29;20063;-75
2022/05/16 01:38:37;;;;;;;3.30;1.67;;;22.50;49.20;;;;;;4935583;29;20071;-74
2022/05/16 01:41:05;;;;;;;3.00;1.75;;;22.40;49.10;;;;;;4938595;29;20032;-74
2022/05/16 01:43:55;;;;;;;2.95;1.70;;;22.40;49.20;;;;;;4938188;29;20036;-74
2022/05/16 01:46:40;;;;;;;2.65;1.63;;;22.40;49.30;;;;;;4938050;29;20040;-75
2022/05/16 01:49:08;;;;;;;2.70;1.40;;;22.40;49.30;;;;;;4939773;29;20040;-76
2022/05/16 01:51:34;;;;;;;3.30;1.63;;;22.30;49.20;;;;;;4922933;29;20118;-74
2022/05/16 01:54:03;;;;;;;2.60;1.80;;;22.30;49.30;;;;;;4954039;29;20032;-74
2022/05/16 01:56:30;;;;;;;3.10;1.70;;;22.20;49.30;;;;;;4937994;29;20028;-75
2022/05/16 01:58:57;;;;;;;3.60;1.85;;;22.20;49.40;;;;;;4922117;29;20044;-74
2022/05/16 02:01:23;;;;;;;2.58;1.67;;;22.20;49.40;;;;;;4938884;29;20028;-75
2022/05/16 02:03:49;;;;;;;2.20;1.42;;;22.20;49.40;;;;;;4937695;29;20044;-74
2022/05/16 02:06:15;;;;;;;2.60;1.45;;;22.20;49.50;;;;;;4937898;29;20099;-76
2022/05/16 02:08:41;;;;;;;3.20;1.70;;;22.10;49.50;;;;;;4938747;29;20035;-75
2022/05/16 02:11:07;;;;;;;3.38;1.52;;;22.10;49.50;;;;;;4937609;29;20032;-74
2022/05/16 02:13:37;;;;;;;3.40;1.65;;;22.10;49.50;;;;;;4938021;29;20046;-74
2022/05/16 02:16:03;;;;;;;1.98;1.30;;;22.10;49.60;;;;;;4937488;29;20472;-75
2022/05/16 02:18:29;;;;;;;2.95;1.63;;;22.00;49.60;;;;;;4939209;29;20036;-75
2022/05/16 02:24:38;;;;;;;3.85;1.83;;;22.00;49.60;;;;;;4921733;29;20032;-76
2022/05/16 02:26:26;;;;;;;3.50;1.60;;;22.00;49.70;;;;;;4937724;29;20130;-75
2022/05/16 02:28:53;;;;;;;3.45;1.70;;;21.90;49.70;;;;;;4938827;29;20591;-75
2022/05/16 02:31:22;;;;;;;3.25;1.77;;;21.90;49.80;;;;;;4921786;29;20130;-75
2022/05/16 02:33:48;;;;;;;2.80;1.77;;;21.90;49.80;;;;;;4936853;29;20035;-75
2022/05/16 02:36:14;;;;;;;2.70;1.77;;;21.90;49.90;;;;;;4938474;29;20028;-75
2022/05/16 02:38:41;;;;;;;3.30;2.10;;;21.80;49.80;;;;;;4921070;29;20032;-75
2022/05/16 02:41:07;;;;;;;2.10;1.48;;;21.80;49.90;;;;;;4922084;29;20035;-75
2022/05/16 02:43:33;;;;;;;3.15;1.60;;;21.80;49.90;;;;;;4937503;29;20465;-76
2022/05/16 02:45:59;;;;;;;3.35;1.80;;;21.70;49.90;;;;;;4921038;29;20163;-75
2022/05/16 02:48:25;;;;;;;2.35;1.60;;;21.80;50.00;;;;;;4921046;29;20031;-76
2022/05/16 02:50:51;;;;;;;3.55;1.70;;;21.70;50.00;;;;;;4920697;29;20038;-76
2022/05/16 02:53:17;;;;;;;3.35;1.67;;;21.70;50.00;;;;;;4920772;29;20550;-75
2022/05/16 02:55:42;;;;;;;3.05;2.00;;;21.70;50.10;;;;;;4952977;29;20032;-75
2022/05/16 02:58:09;;;;;;;2.10;1.52;;;21.60;50.00;;;;;;4937054;29;20426;-75
2022/05/16 03:00:35;;;;;;;2.55;1.70;;;21.60;50.10;;;;;;4921571;29;20067;-75
2022/05/16 03:03:01;;;;;;;3.72;1.83;;;21.60;50.10;;;;;;4921124;29;20123;-75
2022/05/16 03:05:27;;;;;;;2.92;1.83;;;21.50;50.10;;;;;;4938104;29;20063;-77
2022/05/16 03:07:53;;;;;;;4.25;2.05;;;21.50;50.20;;;;;;4937039;29;20067;-75
2022/05/16 03:10:18;;;;;;;2.50;1.52;;;21.50;50.30;;;;;;4921519;29;20536;-75
2022/05/16 03:12:45;;;;;;;3.22;1.65;;;21.50;50.30;;;;;;4921010;29;20388;-75
2022/05/16 03:15:13;;;;;;;2.90;1.60;;;21.40;50.30;;;;;;4936313;29;20469;-75
2022/05/16 03:17:39;;;;;;;3.03;1.60;;;21.40;50.30;;;;;;4938113;29;20032;-75
2022/05/16 03:20:08;;;;;;;4.20;1.80;;;21.40;50.40;;;;;;4952450;29;20032;-75
2022/05/16 03:22:34;;;;;;;3.38;1.98;;;21.40;50.40;;;;;;4920341;29;20032;-75
2022/05/16 03:24:59;;;;;;;3.60;1.75;;;21.40;51.10;;;;;;4921048;29;20032;-77
2022/05/16 03:27:25;;;;;;;4.10;2.03;;;21.30;50.40;;;;;;4921055;29;20401;-76
2022/05/16 03:29:51;;;;;;;3.45;1.83;;;21.40;50.50;;;;;;4920855;29;20032;-75
2022/05/16 03:32:18;;;;;;;3.35;1.80;;;21.30;50.40;;;;;;4920748;29;20066;-75
2022/05/16 03:34:43;;;;;;;3.60;1.85;;;21.30;50.50;;;;;;4904832;29;20080;-76
2022/05/16 03:37:09;;;;;;;4.13;1.85;;;21.30;50.60;;;;;;4904611;29;20032;-75
2022/05/16 03:42:19;;;;;;;2.67;1.70;;;21.20;50.60;;;;;;4923449;29;20051;-75
2022/05/16 03:44:45;;;;;;;2.78;1.60;;;21.20;50.60;;;;;;4937641;29;20350;-75
2022/05/16 03:47:11;;;;;;;3.33;1.98;;;21.20;50.60;;;;;;4920278;29;20469;-74
2022/05/16 03:49:38;;;;;;;2.63;1.83;;;21.20;50.70;;;;;;4920230;29;20477;-75
2022/05/16 03:52:04;;;;;;;3.67;2.08;;;21.10;50.70;;;;;;4920229;29;20481;-76
2022/05/16 03:54:29;;;;;;;3.28;2.20;;;21.10;50.80;;;;;;4936298;29;20051;-76
2022/05/16 03:56:55;;;;;;;3.38;1.70;;;21.10;50.70;;;;;;4919813;29;20099;-75
2022/05/16 03:59:21;;;;;;;3.88;1.98;;;21.10;50.80;;;;;;4904123;29;20065;-75
2022/05/16 04:01:49;;;;;;;3.38;2.08;;;21.00;50.80;;;;;;4935265;29;20039;-74
2022/05/16 04:04:16;;;;;;;3.20;1.90;;;21.10;50.90;;;;;;4935987;29;20440;-76
2022/05/16 04:06:42;;;;;;;3.30;1.75;;;21.00;50.90;;;;;;4936932;29;20464;-75
2022/05/16 04:09:07;;;;;;;3.95;1.95;;;21.00;50.90;;;;;;4905024;29;20036;-75
2022/05/16 04:11:34;;;;;;;3.42;2.03;;;21.00;51.00;;;;;;4920354;29;20027;-75
2022/05/16 04:14:01;;;;;;;3.80;2.10;;;20.90;50.90;;;;;;4904450;29;20031;-74
2022/05/16 04:16:26;;;;;;;2.33;1.65;;;20.90;51.00;;;;;;4935443;29;20036;-75
2022/05/16 04:18:52;;;;;;;2.33;1.70;;;20.90;51.00;;;;;;4935662;29;20126;-75
2022/05/16 04:21:18;;;;;;;3.05;1.90;;;20.90;51.10;;;;;;4935540;29;20057;-75
2022/05/16 04:23:44;;;;;;;2.70;2.00;;;20.90;51.20;;;;;;4935533;29;20543;-77
2022/05/16 04:26:10;;;;;;;2.75;1.65;;;20.80;51.10;;;;;;4937226;29;20487;-77
2022/05/16 04:28:35;;;;;;;2.92;1.90;;;20.80;51.20;;;;;;4935449;29;20023;-76
2022/05/16 04:31:01;;;;;;;2.85;1.80;;;20.80;51.10;;;;;;4919668;29;20128;-75
2022/05/16 04:33:27;;;;;;;3.20;1.88;;;20.80;51.20;;;;;;4935342;29;20437;-76
2022/05/16 04:35:53;;;;;;;2.10;1.60;;;20.80;51.20;;;;;;4904309;29;20040;-75
2022/05/16 04:38:19;;;;;;;2.78;1.80;;;20.70;51.30;;;;;;4934930;29;20465;-77
2022/05/16 04:43:28;;;;;;;4.40;1.93;;;20.70;51.30;;;;;;4935997;29;20075;-75
2022/05/16 04:45:54;;;;;;;2.83;1.70;;;20.70;51.30;;;;;;4919074;29;20035;-75
2022/05/16 04:48:20;;;;;;;4.38;1.88;;;20.70;51.30;;;;;;4950921;29;20468;-75
2022/05/16 04:50:46;;;;;;;3.83;2.20;;;20.60;51.30;;;;;;4934759;29;20035;-75
2022/05/16 04:53:12;;;;;;;3.42;2.15;;;20.60;51.40;;;;;;4934708;29;20087;-75
2022/05/16 04:55:38;;;;;;;4.07;2.03;;;20.60;51.40;;;;;;4903613;29;20039;-74
2022/05/16 04:58:04;;;;;;;3.70;1.95;;;20.60;51.40;;;;;;4919082;29;20036;-75
2022/05/16 05:00:29;;;;;;;3.47;2.03;;;20.60;51.50;;;;;;4918904;29;20024;-75
2022/05/16 05:02:57;;;;;;;2.50;1.80;;;20.50;52.10;;;;;;4919562;29;20512;-74
2022/05/16 05:05:23;;;;;;;3.53;1.70;;;20.50;51.50;;;;;;4934501;29;20068;-75
2022/05/16 05:07:49;;;;;;;3.65;2.22;;;20.50;51.50;;;;;;4935232;29;20373;-75
2022/05/16 05:15:54;;;;;;;2.65;2.00;;;20.40;51.50;;;;;;4935782;29;20047;-77
2022/05/16 05:18:21;;;;;;;3.13;1.88;;;20.40;51.60;;;;;;4934842;29;20036;-76
2022/05/16 05:20:47;;;;;;;3.08;1.98;;;20.40;51.60;;;;;;4918891;29;20055;-77
2022/05/16 05:23:12;;;;;;;2.70;1.88;;;20.40;51.60;;;;;;4934872;29;20044;-74
2022/05/16 05:25:38;;;;;;;4.50;2.20;;;20.40;51.70;;;;;;4934814;29;20075;-75
2022/05/16 05:28:04;;;;;;;3.75;2.20;;;20.40;51.70;;;;;;4935961;29;20057;-76
2022/05/16 05:30:32;;;;;;;3.08;2.20;;;20.40;51.70;;;;;;4934848;29;20115;-76
2022/05/16 05:32:58;;;;;;;3.95;2.22;;;20.40;51.70;;;;;;4934556;29;20063;-75
2022/05/16 05:35:24;;;;;;;2.78;1.90;;;20.40;51.70;;;;;;4918753;29;20028;-75
2022/05/16 05:37:51;;;;;;;3.45;2.20;;;20.40;51.70;;;;;;4918619;29;20361;-76
2022/05/16 05:40:17;;;;;;;3.50;1.98;;;20.40;51.80;;;;;;4919058;29;20032;-75
2022/05/16 05:42:43;;;;;;;4.00;2.10;;;20.40;51.80;;;;;;4918432;29;20393;-76
2022/05/16 05:45:12;;;;;;;3.33;2.08;;;20.30;51.80;;;;;;4918630;29;20436;-75
2022/05/16 05:47:38;;;;;;;3.63;2.13;;;20.30;51.80;;;;;;4919125;29;20039;-76
2022/05/16 05:50:06;;;;;;;3.15;2.10;;;20.30;51.80;;;;;;4936336;29;20040;-75
2022/05/16 05:52:32;;;;;;;2.85;2.00;;;20.30;51.80;;;;;;4934698;29;20031;-75
2022/05/16 05:54:58;;;;;;;2.75;2.05;;;20.30;51.90;;;;;;4950385;29;20028;-75
2022/05/16 05:57:25;;;;;;;4.07;2.50;;;20.30;51.90;;;;;;4934455;29;20035;-76
2022/05/16 05:59:55;;;;;;;4.05;2.17;;;20.30;51.90;;;;;;4934623;29;20094;-75
2022/05/16 06:02:21;;;;;;;2.85;1.90;;;20.30;51.90;;;;;;4934038;29;20044;-75
2022/05/16 06:04:47;;;;;;;3.47;2.28;;;20.30;51.90;;;;;;4934162;29;20062;-76
2022/05/16 06:07:14;;;;;;;3.40;2.20;;;20.30;51.90;;;;;;4934256;29;20043;-75
2022/05/16 06:09:41;;;;;;;3.15;2.05;;;20.30;52.00;;;;;;4918460;29;20031;-75
2022/05/16 06:12:08;;;;;;;2.90;2.08;;;20.30;52.00;;;;;;4919438;29;20083;-77
2022/05/16 06:14:34;;;;;;;3.83;2.20;;;20.30;52.00;;;;;;4918241;29;20516;-75
2022/05/16 06:16:59;;;;;;;2.58;1.90;;;20.30;52.00;;;;;;4935073;29;20019;-75
2022/05/16 06:19:25;;;;;;;2.83;2.00;;;20.30;52.00;;;;;;4919150;29;20039;-76
2022/05/16 06:21:52;;;;;;;3.42;2.45;;;20.30;52.10;;;;;;4934156;29;20083;-76
2022/05/16 06:27:03;;;;;;;3.13;2.22;;;20.40;52.20;;;;;;4938455;29;20070;-75
2022/05/16 06:29:29;;;;;;;4.15;2.30;;;20.40;52.20;;;;;;4939662;29;20028;-75
2022/05/16 06:31:55;;;;;;;4.25;2.35;;;20.40;52.20;;;;;;4937668;29;20477;-75
2022/05/16 06:34:22;;;;;;;2.78;1.88;;;20.40;52.30;;;;;;4921866;29;20103;-75
2022/05/16 06:36:48;;;;;;;2.92;2.03;;;20.40;52.30;;;;;;4940731;29;20372;-75
2022/05/16 06:39:14;;;;;;;4.30;2.58;;;20.40;52.40;;;;;;4921345;29;20035;-75
2022/05/16 06:41:40;;;;;;;3.33;2.20;;;20.40;53.00;;;;;;4937516;29;20028;-77
2022/05/16 06:44:09;;;;;;;3.35;2.17;;;20.40;52.40;;;;;;4936955;29;20173;-76
2022/05/16 06:46:35;;;;;;;2.72;1.95;;;20.40;53.00;;;;;;4936976;29;20032;-75
2022/05/16 06:49:00;;;;;;;3.33;2.03;;;20.40;52.40;;;;;;4922001;29;20058;-75
2022/05/16 06:51:26;;;;;;;3.80;2.30;;;20.40;52.40;;;;;;4938245;29;20456;-76
2022/05/16 06:53:52;;;;;;;3.97;2.10;;;20.40;52.40;;;;;;4921476;29;20031;-75
2022/05/16 06:56:19;;;;;;;3.42;2.30;;;20.40;52.50;;;;;;4937863;29;20030;-76
2022/05/16 06:58:44;;;;;;;3.00;2.17;;;20.40;52.50;;;;;;4937080;29;20059;-75
2022/05/16 07:01:10;;;;;;;5.32;2.58;;;20.50;52.60;;;;;;4921002;29;20087;-77
2022/05/16 07:03:38;;;;;;;3.92;2.17;;;20.50;52.60;;;;;;4937161;29;20554;-76
2022/05/16 07:06:04;;;;;;;3.60;2.20;;;20.50;52.60;;;;;;4937779;29;20481;-76
2022/05/16 07:08:30;;;;;;;3.20;2.50;;;20.50;52.70;;;;;;4921042;29;20433;-75
2022/05/16 07:10:56;;;;;;;3.40;2.50;;;20.50;52.70;;;;;;4920832;29;20032;-75
2022/05/16 07:13:24;;;;;;;3.10;2.30;;;20.60;52.80;;;;;;4920616;29;20409;-76
2022/05/16 07:15:49;;;;;;;4.82;2.22;;;20.60;52.80;;;;;;4936609;29;20154;-75
2022/05/16 07:18:15;;;;;;;3.50;2.30;;;20.60;52.80;;;;;;4938113;29;20476;-77
2022/05/16 07:20:41;;;;;;;3.45;2.17;;;20.60;52.80;;;;;;4920186;29;20036;-75
2022/05/16 07:23:07;;;;;;;2.83;2.17;;;20.70;52.80;;;;;;4920180;29;20114;-76
2022/05/16 07:27:56;;;;;;;2.67;2.05;;;20.70;52.80;;;;;;4920534;29;20047;-75
2022/05/16 07:28:20;;;;;;;2.60;1.85;;;20.70;52.80;;;;;;4937985;29;20032;-76
2022/05/16 07:30:45;;;;;;;3.30;2.10;;;20.70;52.80;;;;;;4920328;29;20042;-76
2022/05/16 07:33:11;;;;;;;2.72;1.95;;;20.80;52.80;;;;;;4920087;29;20135;-77
2022/05/16 07:35:38;;;;;;;3.90;2.05;;;20.80;52.90;;;;;;4936588;29;20043;-77
2022/05/16 07:38:05;;;;;;;3.85;2.20;;;20.80;52.90;;;;;;4935414;29;20046;-77
2022/05/16 07:40:33;;;;;;;3.33;2.00;;;20.90;53.00;;;;;;4921140;29;20384;-76
2022/05/16 07:43:00;;;;;;;3.40;2.05;;;20.80;52.90;;;;;;4936196;29;20036;-77
2022/05/16 07:45:26;;;;;;;3.60;2.17;;;20.90;53.00;;;;;;4936327;29;20043;-77
2022/05/16 07:47:52;;;;;;;3.90;2.05;;;20.90;53.00;;;;;;4935735;29;20031;-77
2022/05/16 07:50:18;;;;;;;3.60;2.20;;;21.00;53.00;;;;;;4920448;29;20127;-77
2022/05/16 07:52:48;;;;;;;3.22;2.08;;;21.00;53.00;;;;;;4935847;29;20489;-77
2022/05/16 07:55:20;;;;;;;4.55;2.20;;;21.00;53.00;;;;;;4936037;29;20039;-77
2022/05/16 07:57:46;;;;;;;4.03;1.95;;;21.00;53.10;;;;;;4952170;29;20146;-77
2022/05/16 08:00:13;;;;;;;4.22;2.30;;;21.00;53.00;;;;;;4935855;29;20464;-77
2022/05/16 08:02:39;;;;;;;3.95;2.10;;;21.10;53.10;;;;;;4951625;29;20091;-76
2022/05/16 08:05:10;;;;;;;3.63;2.00;;;21.10;53.10;;;;;;4920632;29;20076;-77
2022/05/16 08:10:29;;;;;;;3.17;2.17;;;21.10;53.10;;;;;;4920212;29;20024;-77
2022/05/16 08:10:31;;;;;;;2.55;1.95;;;21.10;53.10;;;;;;4922725;29;20102;-76
2022/05/16 08:12:58;;;;;;;3.00;1.90;;;21.20;53.10;;;;;;4921149;29;20062;-76
2022/05/16 08:15:25;;;;;;;3.88;2.13;;;21.20;53.10;;;;;;4935774;29;20038;-76
2022/05/16 08:17:51;;;;;;;3.10;2.10;;;21.20;53.20;;;;;;4951591;29;20115;-77
2022/05/16 08:20:17;;;;;;;2.42;1.73;;;21.20;53.20;;;;;;4919739;29;20072;-77
2022/05/16 08:22:43;;;;;;;2.97;1.83;;;21.20;53.20;;;;;;4936333;29;20519;-77
2022/05/16 08:25:09;;;;;;;3.95;2.35;;;21.30;53.30;;;;;;4920218;29;20038;-77
2022/05/16 08:27:35;;;;;;;5.18;2.50;;;21.30;53.30;;;;;;4951286;29;20039;-76
2022/05/16 08:30:01;;;;;;;2.92;2.10;;;21.30;53.30;;;;;;4919738;29;20083;-77
2022/05/16 08:32:26;;;;;;;4.57;2.33;;;21.40;53.40;;;;;;4919302;29;20051;-76
2022/05/16 08:34:59;;;;;;;4.28;2.13;;;21.40;53.40;;;;;;4935181;29;20083;-77
2022/05/16 08:40:10;;;;;;;3.80;2.40;;;21.50;53.50;;;;;;4936067;29;20126;-78
2022/05/16 08:42:59;;;;;;;3.08;2.03;;;21.50;53.50;;;;;;4919443;29;20046;-77
2022/05/16 08:45:31;;;;;;;3.13;2.20;;;21.60;53.70;;;;;;4951959;29;20035;-77
2022/05/16 08:48:17;;;;;;;2.88;2.08;;;21.60;53.70;;;;;;4919087;29;20028;-78
2022/05/16 08:51:06;;;;;;;3.42;1.92;;;21.70;53.90;;;;;;4951423;29;20043;-75
2022/05/16 08:53:41;;;;;;;4.05;2.33;;;21.70;53.90;;;;;;4934951;29;20028;-75
2022/05/16 08:56:15;;;;;;;2.92;2.03;;;21.80;53.80;;;;;;4935738;29;20043;-76
2022/05/16 08:58:51;;;;;;;3.10;2.13;;;21.90;53.90;;;;;;4951229;29;20086;-76
2022/05/16 09:01:22;;;;;;;3.00;1.90;;;21.90;53.90;;;;;;4936117;29;20400;-77
2022/05/16 09:04:12;;;;;;;3.50;2.22;;;21.90;53.90;;;;;;4951290;29;20044;-77
2022/05/16 09:07:01;;;;;;;3.50;2.08;;;22.00;54.10;;;;;;4935195;29;20120;-76
2022/05/16 09:09:51;;;;;;;3.03;2.13;;;22.10;54.20;;;;;;4950940;29;20063;-78
2022/05/16 09:12:50;;;;;;;3.72;2.13;;;22.10;54.30;;;;;;4935345;29;20095;-77
2022/05/16 09:15:27;;;;;;;3.60;2.40;;;22.20;54.50;;;;;;4935170;29;20090;-76
2022/05/16 09:17:56;;;;;;;2.80;2.10;;;22.30;54.60;;;;;;4934954;29;20059;-76
2022/05/16 09:20:37;;;;;;;3.10;1.88;;;22.30;54.50;;;;;;4935437;29;20031;-76
2022/05/16 09:23:18;;;;;;;2.03;1.63;;;22.40;54.40;;;;;;4918869;29;20039;-76
2022/05/16 09:26:14;;;;;;;3.75;2.08;;;22.50;54.40;;;;;;4936153;29;20031;-76
2022/05/16 09:28:51;;;;;;;3.08;1.90;;;22.60;54.50;;;;;;4935454;29;20099;-76
2022/05/16 09:31:33;;;;;;;3.13;1.85;;;22.70;54.40;;;;;;4935203;29;20406;-76
2022/05/16 09:34:00;;;;;;;3.00;1.95;;;22.80;54.40;;;;;;4950578;29;20573;-76
2022/05/16 09:36:34;;;;;;;2.53;2.00;;;22.90;54.40;;;;;;4934604;29;20067;-76
2022/05/16 09:39:00;;;;;;;2.50;1.80;;;23.00;54.60;;;;;;4951238;29;20027;-77
2022/05/16 09:41:59;;;;;;;2.60;1.70;;;23.10;54.60;;;;;;4918852;29;20118;-76
2022/05/16 09:44:28;;;;;;;2.67;1.80;;;23.20;54.90;;;;;;4919018;29;20048;-77
2022/05/16 09:47:16;;;;;;;2.20;1.80;;;23.30;54.80;;;;;;4934722;29;20135;-78
2022/05/16 09:49:42;;;;;;;5.88;2.20;;;23.30;54.90;;;;;;4934964;29;20035;-76
2022/05/16 09:52:19;;;;;;;2.60;1.70;;;23.50;54.80;;;;;;4919342;29;20027;-76
2022/05/16 09:55:03;;;;;;;3.75;2.20;;;23.50;54.80;;;;;;4936499;29;20031;-76
2022/05/16 09:57:37;;;;;;;3.25;1.73;;;23.60;54.80;;;;;;4935777;29;20460;-77
2022/05/16 10:00:19;;;;;;;2.00;1.58;;;23.70;54.80;;;;;;4935417;29;20028;-77
2022/05/16 10:02:59;;;;;;;1.63;1.52;;;23.80;54.80;;;;;;4922728;29;20044;-77
2022/05/16 10:05:31;;;;;;;1.65;1.48;;;23.90;54.80;;;;;;4954150;29;20059;-78
2022/05/16 10:08:14;;;;;;;2.17;1.75;;;24.00;54.90;;;;;;4954801;29;20032;-77
2022/05/16 10:10:42;;;;;;;2.95;1.83;;;24.10;55.10;;;;;;4938288;29;20023;-77
2022/05/16 10:13:09;;;;;;;2.60;1.75;;;24.20;55.10;;;;;;4922125;29;20023;-79
2022/05/16 10:15:36;;;;;;;3.35;2.10;;;24.30;55.00;;;;;;4937768;29;20031;-78
2022/05/16 10:18:07;;;;;;;2.65;1.70;;;24.40;54.90;;;;;;4922181;29;20042;-78
2022/05/16 10:20:39;;;;;;;2.58;1.77;;;24.50;54.80;;;;;;4954219;29;20036;-78
2022/05/16 10:23:12;;;;;;;2.45;1.73;;;24.60;54.70;;;;;;4937855;29;20040;-78
2022/05/16 10:25:45;;;;;;;3.17;1.67;;;24.70;54.70;;;;;;4937565;29;20483;-78
2022/05/16 10:28:15;;;;;;;2.35;1.50;;;24.90;54.80;;;;;;4938429;29;20496;-76
2022/05/16 10:33:32;;;;;;;2.38;1.40;;;25.00;54.60;;;;;;4924277;29;20552;-77
2022/05/16 10:36:08;;;;;;;2.65;1.70;;;25.20;54.60;;;;;;4922641;29;20027;-76
2022/05/16 10:38:43;;;;;;;2.72;1.85;;;25.30;54.50;;;;;;4953811;29;20060;-77
2022/05/16 10:41:13;;;;;;;2.42;1.60;;;25.40;54.50;;;;;;4953692;29;20027;-77
2022/05/16 10:44:08;;;;;;;2.85;1.70;;;25.40;54.40;;;;;;4937498;29;20035;-76
2022/05/16 10:46:38;;;;;;;1.60;1.50;;;25.50;54.60;;;;;;4938479;29;20036;-78
2022/05/16 10:49:05;;;;;;;2.47;1.65;;;25.60;54.60;;;;;;4937613;29;20441;-76
2022/05/16 10:51:53;;;;;;;2.65;1.75;;;25.70;54.80;;;;;;4937658;29;20086;-77
2022/05/16 10:54:21;;;;;;;3.00;1.73;;;25.80;54.80;;;;;;4938204;29;20441;-77
2022/05/16 10:57:00;;;;;;;1.85;1.38;;;25.90;54.80;;;;;;4938098;29;20535;-77
2022/05/16 10:59:38;;;;;;;1.88;1.45;;;26.00;54.80;;;;;;4937471;29;20036;-76
2022/05/16 11:02:34;;;;;;;2.22;1.48;;;26.10;54.60;;;;;;4953231;29;20039;-76
2022/05/16 11:05:17;;;;;;;1.73;1.40;;;26.10;54.70;;;;;;4937196;29;20043;-77
2022/05/16 11:07:54;;;;;;;1.83;1.55;;;26.30;54.70;;;;;;4938292;29;20456;-76
2022/05/16 11:10:26;;;;;;;2.78;1.63;;;26.40;54.60;;;;;;4936926;29;20134;-77
2022/05/16 11:13:20;;;;;;;1.60;1.50;;;26.50;54.80;;;;;;4938182;29;20034;-77
2022/05/16 11:16:09;;;;;;;2.28;1.45;;;26.50;54.90;;;;;;4921240;29;20063;-76
2022/05/16 11:18:43;;;;;;;1.50;1.40;;;26.60;54.80;;;;;;4936882;29;20039;-78
2022/05/16 11:21:40;;;;;;;2.10;1.60;;;26.70;54.90;;;;;;4936492;29;20039;-76
2022/05/16 11:24:08;;;;;;;1.60;1.17;;;26.80;54.80;;;;;;4938065;29;20055;-76
2022/05/16 11:26:52;;;;;;;2.25;1.45;;;26.80;54.60;;;;;;4920848;29;20019;-77
2022/05/16 11:29:49;;;;;;;1.40;1.10;;;26.90;54.50;;;;;;4921359;29;20365;-77
2022/05/16 11:32:28;;;;;;;1.85;1.42;;;27.00;54.40;;;;;;4937329;29;20028;-76
2022/05/16 11:35:09;;;;;;;2.17;1.58;;;27.10;54.20;;;;;;4937561;29;20036;-77
2022/05/16 11:37:50;;;;;;;2.38;1.45;;;27.10;54.10;;;;;;4921165;29;20183;-76
2022/05/16 11:40:34;;;;;;;2.40;1.50;;;27.10;53.90;;;;;;4937241;29;20473;-77
2022/05/16 11:43:32;;;;;;;2.20;1.55;;;27.20;53.90;;;;;;4936138;29;20040;-76
2022/05/16 11:46:23;;;;;;;2.03;1.30;;;27.30;53.90;;;;;;4929484;29;20110;-76
2022/05/16 11:49:18;;;;;;;1.40;1.30;;;27.30;53.80;;;;;;4936497;29;20039;-78
2022/05/16 11:52:03;;;;;;;2.35;1.52;;;27.30;53.70;;;;;;4936812;29;20090;-76
2022/05/16 11:54:33;;;;;;;1.88;1.58;;;27.40;53.70;;;;;;4936318;29;20106;-79
2022/05/16 12:03:07;;;;;;;2.25;1.45;;;27.40;53.70;;;;;;4937538;29;20043;-78
2022/05/16 12:05:40;;;;;;;2.80;1.50;;;27.40;53.70;;;;;;4920583;29;20051;-78
2022/05/16 12:08:28;;;;;;;1.77;1.55;;;27.40;53.60;;;;;;4937032;29;20031;-78
2022/05/16 12:10:57;;;;;;;2.35;1.60;;;27.40;53.60;;;;;;4936483;29;20110;-78
2022/05/16 12:13:29;;;;;;;1.90;1.60;;;27.40;53.60;;;;;;4920182;29;20035;-77
2022/05/16 12:16:16;;;;;;;2.47;1.80;;;27.40;53.70;;;;;;4936034;29;20035;-78
2022/05/16 12:18:48;;;;;;;4.05;1.90;;;27.40;53.80;;;;;;4936400;29;20031;-77
2022/05/16 12:21:34;;;;;;;2.47;1.65;;;27.40;53.70;;;;;;4920726;29;20036;-77
2022/05/16 12:24:04;;;;;;;2.05;1.60;;;27.40;53.90;;;;;;4936331;29;20036;-78
2022/05/16 12:26:52;;;;;;;2.45;1.70;;;27.40;53.80;;;;;;4919622;29;20032;-76
2022/05/16 12:29:21;;;;;;;2.25;1.70;;;27.40;53.80;;;;;;4935215;29;20036;-77
2022/05/16 12:31:49;;;;;;;1.75;1.50;;;27.40;53.80;;;;;;4935529;29;20496;-77
2022/05/16 12:34:31;;;;;;;2.60;1.55;;;27.40;53.80;;;;;;4935409;29;20048;-77
2022/05/16 12:37:04;;;;;;;2.53;1.80;;;27.40;53.90;;;;;;4919744;29;20099;-77
2022/05/16 12:39:37;;;;;;;2.53;1.65;;;27.40;53.90;;;;;;4935579;29;20062;-77
2022/05/16 12:42:18;;;;;;;2.00;1.77;;;27.40;53.90;;;;;;4935717;29;20108;-77
2022/05/16 12:44:59;;;;;;;2.33;1.77;;;27.40;53.90;;;;;;4936647;29;20067;-77
2022/05/16 12:47:58;;;;;;;3.20;2.17;;;27.40;53.90;;;;;;4919788;29;20452;-77
2022/05/16 12:50:39;;;;;;;3.10;1.80;;;27.30;53.90;;;;;;4935544;29;20099;-77
2022/05/16 12:53:24;;;;;;;2.92;1.80;;;27.30;53.90;;;;;;4936001;29;20040;-77
2022/05/16 12:56:08;;;;;;;1.90;1.73;;;27.30;54.00;;;;;;4934714;29;20079;-78
2022/05/16 12:59:11;;;;;;;3.35;1.90;;;27.30;54.00;;;;;;4934735;29;20047;-78
2022/05/16 13:02:10;;;;;;;2.97;1.80;;;27.30;54.10;;;;;;4926436;29;20050;-79
2022/05/16 13:04:50;;;;;;;2.20;1.65;;;27.30;54.10;;;;;;4920108;29;20039;-79
2022/05/16 13:07:45;;;;;;;3.22;2.00;;;27.20;53.90;;;;;;4935204;29;20039;-80
2022/05/16 13:10:30;;;;;;;3.03;1.83;;;27.30;54.10;;;;;;4951097;29;20192;-79
2022/05/16 13:13:12;;;;;;;2.97;2.20;;;27.20;54.70;;;;;;4935138;29;20040;-79
2022/05/16 13:16:23;;;;;;;4.20;2.30;;;27.20;54.00;;;;;;4934554;29;20028;-77
2022/05/16 13:18:55;;;;;;;3.42;1.92;;;27.20;54.20;;;;;;4934353;29;20040;-78
2022/05/16 13:21:22;;;;;;;2.50;1.90;;;27.20;54.10;;;;;;4950993;29;20032;-80
2022/05/16 13:23:50;;;;;;;3.83;2.35;;;27.20;54.10;;;;;;4935944;29;20036;-79
2022/05/16 13:31:51;;;;;;;3.85;2.50;;;27.20;54.20;;;;;;4934553;29;20066;-78
2022/05/16 13:34:47;;;;;;;4.57;2.53;;;27.20;54.20;;;;;;4937780;29;20110;-78
2022/05/16 13:37:18;;;;;;;3.70;2.60;;;27.10;54.20;;;;;;4938748;29;20036;-78
2022/05/16 13:39:46;;;;;;;3.67;2.70;;;27.10;54.10;;;;;;4939415;29;20090;-78
2022/05/16 13:42:13;;;;;;;3.80;2.60;;;27.10;54.10;;;;;;4922721;29;20028;-77
2022/05/16 13:44:47;;;;;;;3.88;3.00;;;27.10;54.10;;;;;;4922469;29;20036;-78
2022/05/16 13:47:15;;;;;;;5.72;3.13;;;27.10;54.10;;;;;;4940369;29;20036;-78